sensor_id;sensor_type;location;lat;lon;timestamp;temperature;humidity
16301;DHT22;8258;51.020;4.248;2024-02-16T00:00:59;13.50;99.90
16301;DHT22;8258;51.020;4.248;2024-02-16T00:03:26;13.50;99.90
16301;DHT22;8258;51.020;4.248;2024-02-16T00:05:53;13.60;99.90
16301;DHT22;8258;51.020;4.248;2024-02-16T00:08:20;13.60;99.90
16301;DHT22;8258;51.020;4.248;2024-02-16T00:10:49;13.50;99.90
16301;DHT22;8258;51.020;4.248;2024-02-16T00:13:16;13.50;99.90
16301;DHT22;8258;51.020;4.248;2024-02-16T00:15:43;13.40;99.90
16301;DHT22;8258;51.020;4.248;2024-02-16T00:18:10;13.30;99.90
16301;DHT22;8258;51.020;4.248;2024-02-16T00:20:38;13.20;99.90
16301;DHT22;8258;51.020;4.248;2024-02-16T00:23:05;13.20;99.90
16301;DHT22;8258;51.020;4.248;2024-02-16T00:25:32;13.10;99.90
16301;DHT22;8258;51.020;4.248;2024-02-16T00:28:00;13.10;99.90
16301;DHT22;8258;51.020;4.248;2024-02-16T00:30:28;13.00;99.90
16301;DHT22;8258;51.020;4.248;2024-02-16T00:32:55;13.00;99.90
16301;DHT22;8258;51.020;4.248;2024-02-16T00:35:22;12.90;99.90
16301;DHT22;8258;51.020;4.248;2024-02-16T00:37:50;12.90;99.90
16301;DHT22;8258;51.020;4.248;2024-02-16T00:40:17;12.90;99.90
16301;DHT22;8258;51.020;4.248;2024-02-16T00:42:44;12.90;99.90
16301;DHT22;8258;51.020;4.248;2024-02-16T00:45:13;12.90;99.90
16301;DHT22;8258;51.020;4.248;2024-02-16T00:47:40;12.90;99.90
16301;DHT22;8258;51.020;4.248;2024-02-16T00:50:07;12.90;99.90
16301;DHT22;8258;51.020;4.248;2024-02-16T00:52:35;12.90;99.90
16301;DHT22;8258;51.020;4.248;2024-02-16T00:55:03;12.80;99.90
16301;DHT22;8258;51.020;4.248;2024-02-16T00:57:30;12.80;99.90
16301;DHT22;8258;51.020;4.248;2024-02-16T00:59:59;12.80;99.90
16301;DHT22;8258;51.020;4.248;2024-02-16T01:02:27;12.80;99.90
16301;DHT22;8258;51.020;4.248;2024-02-16T01:04:54;12.90;99.90
16301;DHT22;8258;51.020;4.248;2024-02-16T01:07:27;12.80;99.90
16301;DHT22;8258;51.020;4.248;2024-02-16T01:09:54;12.80;99.90
16301;DHT22;8258;51.020;4.248;2024-02-16T01:12:22;12.90;99.90
16301;DHT22;8258;51.020;4.248;2024-02-16T01:14:49;12.90;99.90
16301;DHT22;8258;51.020;4.248;2024-02-16T01:17:16;12.90;99.90
16301;DHT22;8258;51.020;4.248;2024-02-16T01:19:44;13.00;99.90
16301;DHT22;8258;51.020;4.248;2024-02-16T01:22:12;13.10;99.90
16301;DHT22;8258;51.020;4.248;2024-02-16T01:24:39;13.10;99.90
16301;DHT22;8258;51.020;4.248;2024-02-16T01:27:06;13.10;99.90
16301;DHT22;8258;51.020;4.248;2024-02-16T01:29:34;13.10;99.90
16301;DHT22;8258;51.020;4.248;2024-02-16T01:32:01;13.20;99.90
16301;DHT22;8258;51.020;4.248;2024-02-16T01:34:28;13.10;99.90
16301;DHT22;8258;51.020;4.248;2024-02-16T01:36:57;13.20;99.90
16301;DHT22;8258;51.020;4.248;2024-02-16T01:39:24;13.20;99.90
16301;DHT22;8258;51.020;4.248;2024-02-16T01:41:51;13.30;99.90
16301;DHT22;8258;51.020;4.248;2024-02-16T01:44:18;13.30;99.90
16301;DHT22;8258;51.020;4.248;2024-02-16T01:46:45;13.20;99.90
16301;DHT22;8258;51.020;4.248;2024-02-16T01:49:14;13.20;99.90
16301;DHT22;8258;51.020;4.248;2024-02-16T01:51:42;13.20;99.90
16301;DHT22;8258;51.020;4.248;2024-02-16T01:54:12;13.20;99.90
16301;DHT22;8258;51.020;4.248;2024-02-16T01:56:39;13.20;99.90
16301;DHT22;8258;51.020;4.248;2024-02-16T01:59:06;13.30;99.90
16301;DHT22;8258;51.020;4.248;2024-02-16T02:01:33;13.30;99.90
16301;DHT22;8258;51.020;4.248;2024-02-16T02:04:00;13.30;99.90
16301;DHT22;8258;51.020;4.248;2024-02-16T02:06:28;13.30;99.90
16301;DHT22;8258;51.020;4.248;2024-02-16T02:08:55;13.30;99.90
16301;DHT22;8258;51.020;4.248;2024-02-16T02:11:24;13.30;99.90
16301;DHT22;8258;51.020;4.248;2024-02-16T02:13:51;13.40;99.90
16301;DHT22;8258;51.020;4.248;2024-02-16T02:16:19;13.40;99.90
16301;DHT22;8258;51.020;4.248;2024-02-16T02:18:48;13.50;99.90
16301;DHT22;8258;51.020;4.248;2024-02-16T02:21:15;13.50;99.90
16301;DHT22;8258;51.020;4.248;2024-02-16T02:23:44;13.50;99.90
16301;DHT22;8258;51.020;4.248;2024-02-16T02:26:14;13.50;99.90
16301;DHT22;8258;51.020;4.248;2024-02-16T02:28:42;13.50;99.90
16301;DHT22;8258;51.020;4.248;2024-02-16T02:31:09;13.50;99.90
16301;DHT22;8258;51.020;4.248;2024-02-16T02:33:36;13.60;99.90
16301;DHT22;8258;51.020;4.248;2024-02-16T02:36:04;13.60;99.90
16301;DHT22;8258;51.020;4.248;2024-02-16T02:38:31;13.60;99.90
16301;DHT22;8258;51.020;4.248;2024-02-16T02:41:00;13.60;99.90
16301;DHT22;8258;51.020;4.248;2024-02-16T02:43:27;13.60;99.90
16301;DHT22;8258;51.020;4.248;2024-02-16T02:45:54;13.60;99.90
16301;DHT22;8258;51.020;4.248;2024-02-16T02:48:21;13.60;99.90
16301;DHT22;8258;51.020;4.248;2024-02-16T02:50:48;13.50;99.90
16301;DHT22;8258;51.020;4.248;2024-02-16T02:53:15;13.50;99.90
16301;DHT22;8258;51.020;4.248;2024-02-16T02:55:43;13.60;99.90
16301;DHT22;8258;51.020;4.248;2024-02-16T02:58:12;13.50;99.90
16301;DHT22;8258;51.020;4.248;2024-02-16T03:00:39;13.60;99.90
16301;DHT22;8258;51.020;4.248;2024-02-16T03:03:06;13.60;99.90
16301;DHT22;8258;51.020;4.248;2024-02-16T03:05:33;13.60;99.90
16301;DHT22;8258;51.020;4.248;2024-02-16T03:08:01;13.60;99.90
16301;DHT22;8258;51.020;4.248;2024-02-16T03:10:29;13.60;99.90
16301;DHT22;8258;51.020;4.248;2024-02-16T03:13:01;13.60;99.90
16301;DHT22;8258;51.020;4.248;2024-02-16T03:15:30;13.50;99.90
16301;DHT22;8258;51.020;4.248;2024-02-16T03:17:57;13.50;99.90
16301;DHT22;8258;51.020;4.248;2024-02-16T03:20:24;13.60;99.90
16301;DHT22;8258;51.020;4.248;2024-02-16T03:22:51;13.60;99.90
16301;DHT22;8258;51.020;4.248;2024-02-16T03:25:18;13.60;99.90
16301;DHT22;8258;51.020;4.248;2024-02-16T03:27:46;13.70;99.90
16301;DHT22;8258;51.020;4.248;2024-02-16T03:30:13;13.60;99.90
16301;DHT22;8258;51.020;4.248;2024-02-16T03:32:42;13.60;99.90
16301;DHT22;8258;51.020;4.248;2024-02-16T03:35:10;13.70;99.90
16301;DHT22;8258;51.020;4.248;2024-02-16T03:37:37;13.60;99.90
16301;DHT22;8258;51.020;4.248;2024-02-16T03:40:06;13.60;99.90
16301;DHT22;8258;51.020;4.248;2024-02-16T03:42:33;13.60;99.90
16301;DHT22;8258;51.020;4.248;2024-02-16T03:45:01;13.70;99.90
16301;DHT22;8258;51.020;4.248;2024-02-16T03:47:28;13.70;99.90
16301;DHT22;8258;51.020;4.248;2024-02-16T03:49:57;13.60;99.90
16301;DHT22;8258;51.020;4.248;2024-02-16T03:52:24;13.60;99.90
16301;DHT22;8258;51.020;4.248;2024-02-16T03:54:51;13.60;99.90
16301;DHT22;8258;51.020;4.248;2024-02-16T03:57:18;13.60;99.90
16301;DHT22;8258;51.020;4.248;2024-02-16T03:59:45;13.60;99.90
16301;DHT22;8258;51.020;4.248;2024-02-16T04:02:12;13.60;99.90
16301;DHT22;8258;51.020;4.248;2024-02-16T04:04:40;13.60;99.90
16301;DHT22;8258;51.020;4.248;2024-02-16T04:07:08;13.60;99.90
16301;DHT22;8258;51.020;4.248;2024-02-16T04:09:35;13.70;99.90
16301;DHT22;8258;51.020;4.248;2024-02-16T04:12:03;13.60;99.90
16301;DHT22;8258;51.020;4.248;2024-02-16T04:14:30;13.60;99.90
16301;DHT22;8258;51.020;4.248;2024-02-16T04:16:59;13.60;99.90
16301;DHT22;8258;51.020;4.248;2024-02-16T04:19:26;13.50;99.90
16301;DHT22;8258;51.020;4.248;2024-02-16T04:21:53;13.50;99.90
16301;DHT22;8258;51.020;4.248;2024-02-16T04:24:22;13.50;99.90
16301;DHT22;8258;51.020;4.248;2024-02-16T04:26:48;13.50;99.90
16301;DHT22;8258;51.020;4.248;2024-02-16T04:29:15;13.50;99.90
16301;DHT22;8258;51.020;4.248;2024-02-16T04:31:42;13.50;99.90
16301;DHT22;8258;51.020;4.248;2024-02-16T04:34:11;13.50;99.90
16301;DHT22;8258;51.020;4.248;2024-02-16T04:36:38;13.50;99.90
16301;DHT22;8258;51.020;4.248;2024-02-16T04:39:05;13.50;99.90
16301;DHT22;8258;51.020;4.248;2024-02-16T04:41:34;13.50;99.90
16301;DHT22;8258;51.020;4.248;2024-02-16T04:44:01;13.50;99.90
16301;DHT22;8258;51.020;4.248;2024-02-16T04:46:28;13.40;99.90
16301;DHT22;8258;51.020;4.248;2024-02-16T04:48:55;13.40;99.90
16301;DHT22;8258;51.020;4.248;2024-02-16T04:51:22;13.40;99.90
16301;DHT22;8258;51.020;4.248;2024-02-16T04:53:49;13.40;99.90
16301;DHT22;8258;51.020;4.248;2024-02-16T04:56:16;13.40;99.90
16301;DHT22;8258;51.020;4.248;2024-02-16T04:58:44;13.50;99.90
16301;DHT22;8258;51.020;4.248;2024-02-16T05:01:13;13.40;99.90
16301;DHT22;8258;51.020;4.248;2024-02-16T05:03:40;13.40;99.90
16301;DHT22;8258;51.020;4.248;2024-02-16T05:06:07;13.50;99.90
16301;DHT22;8258;51.020;4.248;2024-02-16T05:08:34;13.50;99.90
16301;DHT22;8258;51.020;4.248;2024-02-16T05:11:01;13.50;99.90
16301;DHT22;8258;51.020;4.248;2024-02-16T05:13:28;13.50;99.90
16301;DHT22;8258;51.020;4.248;2024-02-16T05:15:57;13.50;99.90
16301;DHT22;8258;51.020;4.248;2024-02-16T05:18:24;13.50;99.90
16301;DHT22;8258;51.020;4.248;2024-02-16T05:20:51;13.50;99.90
16301;DHT22;8258;51.020;4.248;2024-02-16T05:23:19;13.50;99.90
16301;DHT22;8258;51.020;4.248;2024-02-16T05:25:46;13.50;99.90
16301;DHT22;8258;51.020;4.248;2024-02-16T05:28:13;13.50;99.90
16301;DHT22;8258;51.020;4.248;2024-02-16T05:30:40;13.50;99.90
16301;DHT22;8258;51.020;4.248;2024-02-16T05:33:08;13.50;99.90
16301;DHT22;8258;51.020;4.248;2024-02-16T05:35:35;13.50;99.90
16301;DHT22;8258;51.020;4.248;2024-02-16T05:38:06;13.50;99.90
16301;DHT22;8258;51.020;4.248;2024-02-16T05:40:46;13.50;99.90
16301;DHT22;8258;51.020;4.248;2024-02-16T05:43:19;13.40;99.90
16301;DHT22;8258;51.020;4.248;2024-02-16T05:45:46;13.40;99.90
16301;DHT22;8258;51.020;4.248;2024-02-16T05:48:15;13.30;99.90
16301;DHT22;8258;51.020;4.248;2024-02-16T05:50:42;13.40;99.90
16301;DHT22;8258;51.020;4.248;2024-02-16T05:53:09;13.40;99.90
16301;DHT22;8258;51.020;4.248;2024-02-16T05:55:37;13.40;99.90
16301;DHT22;8258;51.020;4.248;2024-02-16T05:58:04;13.40;99.90
16301;DHT22;8258;51.020;4.248;2024-02-16T06:00:33;13.50;99.90
16301;DHT22;8258;51.020;4.248;2024-02-16T06:03:00;13.50;99.90
16301;DHT22;8258;51.020;4.248;2024-02-16T06:05:29;13.40;99.90
16301;DHT22;8258;51.020;4.248;2024-02-16T06:07:58;13.40;99.90
16301;DHT22;8258;51.020;4.248;2024-02-16T06:10:26;13.30;99.90
16301;DHT22;8258;51.020;4.248;2024-02-16T06:12:53;13.30;99.90
16301;DHT22;8258;51.020;4.248;2024-02-16T06:15:20;13.30;99.90
16301;DHT22;8258;51.020;4.248;2024-02-16T06:17:48;13.30;99.90
16301;DHT22;8258;51.020;4.248;2024-02-16T06:20:15;13.30;99.90
16301;DHT22;8258;51.020;4.248;2024-02-16T06:22:44;13.40;99.90
16301;DHT22;8258;51.020;4.248;2024-02-16T06:25:10;13.40;99.90
16301;DHT22;8258;51.020;4.248;2024-02-16T06:27:38;13.40;99.90
16301;DHT22;8258;51.020;4.248;2024-02-16T06:30:06;13.40;99.90
16301;DHT22;8258;51.020;4.248;2024-02-16T06:32:38;13.30;99.90
16301;DHT22;8258;51.020;4.248;2024-02-16T06:35:07;13.40;99.90
16301;DHT22;8258;51.020;4.248;2024-02-16T06:37:34;13.40;99.90
16301;DHT22;8258;51.020;4.248;2024-02-16T06:40:05;13.40;99.90
16301;DHT22;8258;51.020;4.248;2024-02-16T06:42:35;13.50;99.90
16301;DHT22;8258;51.020;4.248;2024-02-16T06:45:02;13.50;99.90
16301;DHT22;8258;51.020;4.248;2024-02-16T06:47:30;13.60;99.90
16301;DHT22;8258;51.020;4.248;2024-02-16T06:49:58;13.60;99.90
16301;DHT22;8258;51.020;4.248;2024-02-16T06:52:25;13.60;99.90
16301;DHT22;8258;51.020;4.248;2024-02-16T06:54:52;13.60;99.90
16301;DHT22;8258;51.020;4.248;2024-02-16T06:57:20;13.60;99.90
16301;DHT22;8258;51.020;4.248;2024-02-16T06:59:47;13.60;99.90
16301;DHT22;8258;51.020;4.248;2024-02-16T07:02:15;13.50;99.90
16301;DHT22;8258;51.020;4.248;2024-02-16T07:04:43;13.50;99.90
16301;DHT22;8258;51.020;4.248;2024-02-16T07:07:11;13.50;99.90
16301;DHT22;8258;51.020;4.248;2024-02-16T07:09:38;13.50;99.90
16301;DHT22;8258;51.020;4.248;2024-02-16T07:12:05;13.50;99.90
16301;DHT22;8258;51.020;4.248;2024-02-16T07:14:34;13.40;99.90
16301;DHT22;8258;51.020;4.248;2024-02-16T07:17:01;13.50;99.90
16301;DHT22;8258;51.020;4.248;2024-02-16T07:19:28;13.40;99.90
16301;DHT22;8258;51.020;4.248;2024-02-16T07:21:56;13.40;99.90
16301;DHT22;8258;51.020;4.248;2024-02-16T07:24:23;13.40;99.90
16301;DHT22;8258;51.020;4.248;2024-02-16T07:26:50;13.40;99.90
16301;DHT22;8258;51.020;4.248;2024-02-16T07:29:17;13.40;99.90
16301;DHT22;8258;51.020;4.248;2024-02-16T07:31:45;13.20;99.90
16301;DHT22;8258;51.020;4.248;2024-02-16T07:34:12;13.10;99.90
16301;DHT22;8258;51.020;4.248;2024-02-16T07:36:39;13.00;99.90
16301;DHT22;8258;51.020;4.248;2024-02-16T07:39:06;12.90;99.90
16301;DHT22;8258;51.020;4.248;2024-02-16T07:41:37;13.00;99.90
16301;DHT22;8258;51.020;4.248;2024-02-16T07:44:04;13.10;99.90
16301;DHT22;8258;51.020;4.248;2024-02-16T07:46:32;13.20;99.90
16301;DHT22;8258;51.020;4.248;2024-02-16T07:49:01;13.20;99.90
16301;DHT22;8258;51.020;4.248;2024-02-16T07:51:30;13.30;99.90
16301;DHT22;8258;51.020;4.248;2024-02-16T07:53:57;13.40;99.90
16301;DHT22;8258;51.020;4.248;2024-02-16T07:56:24;13.40;99.90
16301;DHT22;8258;51.020;4.248;2024-02-16T07:58:51;13.50;99.90
16301;DHT22;8258;51.020;4.248;2024-02-16T08:01:18;13.50;99.90
16301;DHT22;8258;51.020;4.248;2024-02-16T08:03:45;13.60;99.90
16301;DHT22;8258;51.020;4.248;2024-02-16T08:06:13;13.60;99.90
16301;DHT22;8258;51.020;4.248;2024-02-16T08:08:42;13.60;99.90
16301;DHT22;8258;51.020;4.248;2024-02-16T08:11:09;13.60;99.90
16301;DHT22;8258;51.020;4.248;2024-02-16T08:13:36;13.70;99.90
16301;DHT22;8258;51.020;4.248;2024-02-16T08:16:04;13.60;99.90
16301;DHT22;8258;51.020;4.248;2024-02-16T08:18:32;13.70;99.90
16301;DHT22;8258;51.020;4.248;2024-02-16T08:20:59;13.70;99.90
16301;DHT22;8258;51.020;4.248;2024-02-16T08:23:28;13.70;99.90
16301;DHT22;8258;51.020;4.248;2024-02-16T08:25:56;13.70;99.90
16301;DHT22;8258;51.020;4.248;2024-02-16T08:28:23;13.70;99.90
16301;DHT22;8258;51.020;4.248;2024-02-16T08:30:50;13.70;99.90
16301;DHT22;8258;51.020;4.248;2024-02-16T08:33:17;13.80;99.90
16301;DHT22;8258;51.020;4.248;2024-02-16T08:35:45;13.80;99.90
16301;DHT22;8258;51.020;4.248;2024-02-16T08:38:12;13.80;99.90
16301;DHT22;8258;51.020;4.248;2024-02-16T08:40:40;13.80;99.90
16301;DHT22;8258;51.020;4.248;2024-02-16T08:43:08;13.80;99.90
16301;DHT22;8258;51.020;4.248;2024-02-16T08:45:35;13.90;99.90
16301;DHT22;8258;51.020;4.248;2024-02-16T08:48:02;13.90;99.90
16301;DHT22;8258;51.020;4.248;2024-02-16T08:50:29;13.90;99.90
16301;DHT22;8258;51.020;4.248;2024-02-16T08:52:57;13.90;99.90
16301;DHT22;8258;51.020;4.248;2024-02-16T08:55:24;13.90;99.90
16301;DHT22;8258;51.020;4.248;2024-02-16T08:57:53;13.90;99.90
16301;DHT22;8258;51.020;4.248;2024-02-16T09:00:20;13.90;99.90
16301;DHT22;8258;51.020;4.248;2024-02-16T09:02:49;13.90;99.90
16301;DHT22;8258;51.020;4.248;2024-02-16T09:05:16;13.90;99.90
16301;DHT22;8258;51.020;4.248;2024-02-16T09:07:43;13.90;99.90
16301;DHT22;8258;51.020;4.248;2024-02-16T09:10:10;13.90;99.90
16301;DHT22;8258;51.020;4.248;2024-02-16T09:12:37;13.90;99.90
16301;DHT22;8258;51.020;4.248;2024-02-16T09:15:07;14.00;99.90
16301;DHT22;8258;51.020;4.248;2024-02-16T09:17:34;13.90;99.90
16301;DHT22;8258;51.020;4.248;2024-02-16T09:20:01;13.90;99.90
16301;DHT22;8258;51.020;4.248;2024-02-16T09:22:30;13.90;99.90
16301;DHT22;8258;51.020;4.248;2024-02-16T09:24:57;13.90;99.90
16301;DHT22;8258;51.020;4.248;2024-02-16T09:27:25;13.90;99.90
16301;DHT22;8258;51.020;4.248;2024-02-16T09:29:57;13.80;99.90
16301;DHT22;8258;51.020;4.248;2024-02-16T09:32:42;13.80;99.90
16301;DHT22;8258;51.020;4.248;2024-02-16T09:35:24;13.80;99.90
16301;DHT22;8258;51.020;4.248;2024-02-16T09:38:12;13.80;99.90
16301;DHT22;8258;51.020;4.248;2024-02-16T09:41:01;13.80;99.90
16301;DHT22;8258;51.020;4.248;2024-02-16T10:14:42;13.40;99.90
16301;DHT22;8258;51.020;4.248;2024-02-16T10:17:27;13.30;99.90
16301;DHT22;8258;51.020;4.248;2024-02-16T10:19:58;13.20;99.90
16301;DHT22;8258;51.020;4.248;2024-02-16T10:22:36;13.20;99.90
16301;DHT22;8258;51.020;4.248;2024-02-16T10:30:17;13.20;99.90
16301;DHT22;8258;51.020;4.248;2024-02-16T10:32:49;13.10;99.90
16301;DHT22;8258;51.020;4.248;2024-02-16T10:35:19;13.10;99.90
16301;DHT22;8258;51.020;4.248;2024-02-16T10:37:51;13.10;99.90
16301;DHT22;8258;51.020;4.248;2024-02-16T10:40:23;13.10;99.90
16301;DHT22;8258;51.020;4.248;2024-02-16T10:43:11;13.20;99.90
16301;DHT22;8258;51.020;4.248;2024-02-16T10:45:54;13.10;99.90
16301;DHT22;8258;51.020;4.248;2024-02-16T10:48:29;13.20;99.90
16301;DHT22;8258;51.020;4.248;2024-02-16T10:53:36;13.10;99.90
16301;DHT22;8258;51.020;4.248;2024-02-16T11:12:53;12.90;99.90
16301;DHT22;8258;51.020;4.248;2024-02-16T11:16:01;12.80;99.90
16301;DHT22;8258;51.020;4.248;2024-02-16T11:18:43;12.80;99.90
16301;DHT22;8258;51.020;4.248;2024-02-16T11:24:09;12.70;99.90
16301;DHT22;8258;51.020;4.248;2024-02-16T11:26:45;12.70;99.90
16301;DHT22;8258;51.020;4.248;2024-02-16T11:29:21;12.60;99.90
16301;DHT22;8258;51.020;4.248;2024-02-16T11:32:05;12.60;99.90
16301;DHT22;8258;51.020;4.248;2024-02-16T11:34:40;12.50;99.90
16301;DHT22;8258;51.020;4.248;2024-02-16T11:37:08;12.50;99.90
16301;DHT22;8258;51.020;4.248;2024-02-16T11:39:38;12.50;99.90
16301;DHT22;8258;51.020;4.248;2024-02-16T11:45:00;12.40;99.90
16301;DHT22;8258;51.020;4.248;2024-02-16T11:47:29;12.50;99.90
16301;DHT22;8258;51.020;4.248;2024-02-16T11:50:02;12.50;99.90
16301;DHT22;8258;51.020;4.248;2024-02-16T11:52:32;12.50;99.90
16301;DHT22;8258;51.020;4.248;2024-02-16T11:55:01;12.50;99.90
16301;DHT22;8258;51.020;4.248;2024-02-16T11:57:51;12.40;99.90
16301;DHT22;8258;51.020;4.248;2024-02-16T12:00:47;12.50;99.90
16301;DHT22;8258;51.020;4.248;2024-02-16T12:03:49;12.60;99.90
16301;DHT22;8258;51.020;4.248;2024-02-16T12:16:42;12.70;99.90
16301;DHT22;8258;51.020;4.248;2024-02-16T12:19:12;12.70;99.90
16301;DHT22;8258;51.020;4.248;2024-02-16T12:21:43;12.60;99.90
16301;DHT22;8258;51.020;4.248;2024-02-16T12:43:43;12.90;99.90
16301;DHT22;8258;51.020;4.248;2024-02-16T12:51:24;13.00;99.90
16301;DHT22;8258;51.020;4.248;2024-02-16T12:53:54;13.10;99.90
16301;DHT22;8258;51.020;4.248;2024-02-16T13:06:41;13.20;99.90
16301;DHT22;8258;51.020;4.248;2024-02-16T14:25:42;14.20;99.90
16301;DHT22;8258;51.020;4.248;2024-02-16T15:30:25;14.80;99.90
16301;DHT22;8258;51.020;4.248;2024-02-16T15:32:55;14.60;99.90
16301;DHT22;8258;51.020;4.248;2024-02-16T15:35:24;14.30;99.90
16301;DHT22;8258;51.020;4.248;2024-02-16T17:00:17;13.40;99.90
16301;DHT22;8258;51.020;4.248;2024-02-16T18:00:53;12.70;99.90
16301;DHT22;8258;51.020;4.248;2024-02-16T18:03:35;12.60;99.90
16301;DHT22;8258;51.020;4.248;2024-02-16T18:06:05;12.60;99.90
16301;DHT22;8258;51.020;4.248;2024-02-16T18:13:40;12.40;99.90
16301;DHT22;8258;51.020;4.248;2024-02-16T18:16:11;12.40;99.90
16301;DHT22;8258;51.020;4.248;2024-02-16T18:18:44;12.30;99.90
16301;DHT22;8258;51.020;4.248;2024-02-16T18:21:14;12.40;99.90
16301;DHT22;8258;51.020;4.248;2024-02-16T18:28:57;12.20;99.90
16301;DHT22;8258;51.020;4.248;2024-02-16T18:31:27;12.20;99.90
16301;DHT22;8258;51.020;4.248;2024-02-16T18:33:56;12.20;99.90
16301;DHT22;8258;51.020;4.248;2024-02-16T18:36:26;12.20;99.90
16301;DHT22;8258;51.020;4.248;2024-02-16T18:39:04;12.30;99.90
16301;DHT22;8258;51.020;4.248;2024-02-16T18:41:35;12.10;99.90
16301;DHT22;8258;51.020;4.248;2024-02-16T18:44:04;12.10;99.90
16301;DHT22;8258;51.020;4.248;2024-02-16T18:46:38;12.10;99.90
16301;DHT22;8258;51.020;4.248;2024-02-16T18:49:11;12.10;99.90
16301;DHT22;8258;51.020;4.248;2024-02-16T18:51:45;12.10;99.90
16301;DHT22;8258;51.020;4.248;2024-02-16T18:54:18;12.00;99.90
16301;DHT22;8258;51.020;4.248;2024-02-16T18:56:47;11.90;99.90
16301;DHT22;8258;51.020;4.248;2024-02-16T18:59:17;11.90;99.90
16301;DHT22;8258;51.020;4.248;2024-02-16T19:01:47;11.80;99.90
16301;DHT22;8258;51.020;4.248;2024-02-16T19:04:16;11.70;99.90
16301;DHT22;8258;51.020;4.248;2024-02-16T19:06:45;11.60;99.90
16301;DHT22;8258;51.020;4.248;2024-02-16T19:09:17;11.50;99.90
16301;DHT22;8258;51.020;4.248;2024-02-16T19:11:44;11.40;99.90
16301;DHT22;8258;51.020;4.248;2024-02-16T19:14:13;11.30;99.90
16301;DHT22;8258;51.020;4.248;2024-02-16T19:16:47;11.10;99.90
16301;DHT22;8258;51.020;4.248;2024-02-16T19:19:16;11.10;99.90
16301;DHT22;8258;51.020;4.248;2024-02-16T19:21:46;10.90;99.90
16301;DHT22;8258;51.020;4.248;2024-02-16T19:24:14;10.80;99.90
16301;DHT22;8258;51.020;4.248;2024-02-16T19:29:23;10.70;99.90
16301;DHT22;8258;51.020;4.248;2024-02-16T19:31:54;10.60;99.90
16301;DHT22;8258;51.020;4.248;2024-02-16T19:34:24;10.50;99.90
16301;DHT22;8258;51.020;4.248;2024-02-16T19:36:58;10.40;99.90
16301;DHT22;8258;51.020;4.248;2024-02-16T19:39:27;10.40;99.90
16301;DHT22;8258;51.020;4.248;2024-02-16T19:41:56;10.30;99.90
16301;DHT22;8258;51.020;4.248;2024-02-16T19:44:26;10.30;99.90
16301;DHT22;8258;51.020;4.248;2024-02-16T19:46:59;10.30;99.90
16301;DHT22;8258;51.020;4.248;2024-02-16T19:49:49;10.20;99.90
16301;DHT22;8258;51.020;4.248;2024-02-16T19:52:19;10.20;99.90
16301;DHT22;8258;51.020;4.248;2024-02-16T19:54:48;10.10;99.90
16301;DHT22;8258;51.020;4.248;2024-02-16T19:57:21;10.10;99.90
16301;DHT22;8258;51.020;4.248;2024-02-16T19:59:50;10.00;99.90
16301;DHT22;8258;51.020;4.248;2024-02-16T20:02:28;10.00;99.90
16301;DHT22;8258;51.020;4.248;2024-02-16T20:05:00;10.00;99.90
16301;DHT22;8258;51.020;4.248;2024-02-16T20:07:33;9.90;99.90
16301;DHT22;8258;51.020;4.248;2024-02-16T20:10:03;9.90;99.90
16301;DHT22;8258;51.020;4.248;2024-02-16T20:12:34;9.80;99.90
16301;DHT22;8258;51.020;4.248;2024-02-16T20:15:04;9.80;99.90
16301;DHT22;8258;51.020;4.248;2024-02-16T20:17:35;9.70;99.90
16301;DHT22;8258;51.020;4.248;2024-02-16T20:20:06;9.70;99.90
16301;DHT22;8258;51.020;4.248;2024-02-16T20:22:42;9.70;99.90
16301;DHT22;8258;51.020;4.248;2024-02-16T20:25:11;9.60;99.90
16301;DHT22;8258;51.020;4.248;2024-02-16T20:36:00;9.50;99.90
16301;DHT22;8258;51.020;4.248;2024-02-16T20:38:30;9.50;99.90
16301;DHT22;8258;51.020;4.248;2024-02-16T20:44:07;9.50;99.90
16301;DHT22;8258;51.020;4.248;2024-02-16T20:46:42;9.50;99.90
16301;DHT22;8258;51.020;4.248;2024-02-16T20:49:11;9.50;99.90
16301;DHT22;8258;51.020;4.248;2024-02-16T20:51:48;9.70;99.90
16301;DHT22;8258;51.020;4.248;2024-02-16T20:54:18;9.70;99.90
16301;DHT22;8258;51.020;4.248;2024-02-16T20:56:50;9.80;99.90
16301;DHT22;8258;51.020;4.248;2024-02-16T20:59:21;9.90;99.90
16301;DHT22;8258;51.020;4.248;2024-02-16T21:01:59;9.90;99.90
16301;DHT22;8258;51.020;4.248;2024-02-16T21:04:30;10.00;99.90
16301;DHT22;8258;51.020;4.248;2024-02-16T21:07:02;10.00;99.90
16301;DHT22;8258;51.020;4.248;2024-02-16T21:09:36;10.10;99.90
16301;DHT22;8258;51.020;4.248;2024-02-16T21:12:08;10.00;99.90
16301;DHT22;8258;51.020;4.248;2024-02-16T21:14:40;10.10;99.90
16301;DHT22;8258;51.020;4.248;2024-02-16T21:17:09;10.10;99.90
16301;DHT22;8258;51.020;4.248;2024-02-16T21:19:39;10.20;99.90
16301;DHT22;8258;51.020;4.248;2024-02-16T21:22:08;10.10;99.90
16301;DHT22;8258;51.020;4.248;2024-02-16T21:24:37;10.10;99.90
16301;DHT22;8258;51.020;4.248;2024-02-16T21:27:11;10.20;99.90
16301;DHT22;8258;51.020;4.248;2024-02-16T21:29:41;10.20;99.90
16301;DHT22;8258;51.020;4.248;2024-02-16T21:42:34;10.20;99.90
16301;DHT22;8258;51.020;4.248;2024-02-16T21:45:05;10.20;99.90
16301;DHT22;8258;51.020;4.248;2024-02-16T21:47:35;10.20;99.90
16301;DHT22;8258;51.020;4.248;2024-02-16T21:52:47;10.30;99.90
16301;DHT22;8258;51.020;4.248;2024-02-16T21:55:17;10.30;99.90
16301;DHT22;8258;51.020;4.248;2024-02-16T21:57:46;10.30;99.90
16301;DHT22;8258;51.020;4.248;2024-02-16T22:00:16;10.20;99.90
16301;DHT22;8258;51.020;4.248;2024-02-16T22:02:46;10.20;99.90
16301;DHT22;8258;51.020;4.248;2024-02-16T22:11:01;10.30;99.90
